Time;durP1;ratioP1;P1;durP2;ratioP2;P2;SDS_P1;SDS_P2;PMS_P1;PMS_P2;Temp;Humidity;BMP_temperature;BMP_pressure;BME280_temperature;BME280_humidity;BME280_pressure;Samples;Min_cycle;Max_cycle;Signal;HPM_P1;HPM_P2
2021/07/18 00:01:07;;;;;;;1.58;0.20;;;;;;;14.37;100.00;101017.94;5065593;28;20055;-50
2021/07/18 00:04:11;;;;;;;2.05;0.73;;;;;;;14.31;100.00;101019.84;5062013;28;20052;-50
2021/07/18 00:07:14;;;;;;;3.03;0.65;;;;;;;14.31;100.00;101011.44;5053632;28;20048;-50
2021/07/18 00:10:18;;;;;;;1.70;0.50;;;;;;;14.24;100.00;101015.31;5064700;28;20056;-50
2021/07/18 00:13:22;;;;;;;0.63;0.30;;;;;;;14.22;100.00;101011.44;5053652;28;20060;-50
2021/07/18 00:16:25;;;;;;;0.52;0.20;;;;;;;14.17;100.00;101009.28;5053339;28;20056;-50
2021/07/18 00:19:28;;;;;;;9.68;0.63;;;;;;;14.09;100.00;101008.06;5053239;28;20515;-50
2021/07/18 00:22:32;;;;;;;2.08;0.47;;;;;;;14.07;100.00;101008.53;5053329;28;20055;-49
2021/07/18 00:25:36;;;;;;;1.80;0.70;;;;;;;14.08;100.00;101000.91;5053355;28;20068;-50
2021/07/18 00:28:40;;;;;;;1.13;0.25;;;;;;;14.08;100.00;101001.69;5053218;28;20056;-50
2021/07/18 00:31:44;;;;;;;1.00;0.60;;;;;;;14.09;100.00;101002.47;5051517;28;20402;-50
2021/07/18 00:34:48;;;;;;;1.33;0.60;;;;;;;14.08;100.00;101001.69;5053353;28;20064;-50
2021/07/18 00:37:51;;;;;;;2.00;0.40;;;;;;;14.05;100.00;100996.25;5052830;28;20114;-50
2021/07/18 00:40:55;;;;;;;2.13;0.40;;;;;;;13.99;100.00;101001.69;5063316;28;20056;-50
2021/07/18 00:43:58;;;;;;;3.40;1.08;;;;;;;13.94;100.00;101004.38;5053048;28;20056;-50
2021/07/18 00:47:01;;;;;;;0.70;0.30;;;;;;;13.99;100.00;101006.53;5052966;28;20409;-50
2021/07/18 00:50:12;;;;;;;3.15;0.93;;;;;;;14.06;100.00;100997.78;5052830;28;20063;-50
2021/07/18 00:53:16;;;;;;;2.08;1.15;;;;;;;14.05;100.00;100999.06;5052617;28;20067;-49
2021/07/18 00:56:21;;;;;;;0.70;0.40;;;;;;;14.01;100.00;100998.44;5071919;28;20055;-51
2021/07/18 00:59:25;;;;;;;2.13;1.00;;;;;;;14.02;100.00;101000.78;5072042;28;20055;-50
2021/07/18 01:02:28;;;;;;;1.75;1.08;;;;;;;14.00;100.00;100997.66;5072812;28;20048;-50
2021/07/18 01:05:32;;;;;;;0.47;0.15;;;;;;;13.97;100.00;101000.66;5072851;28;20043;-51
2021/07/18 01:08:35;;;;;;;0.82;0.47;;;;;;;13.95;100.00;100998.28;5072850;28;20425;-50
2021/07/18 01:11:40;;;;;;;0.35;0.32;;;;;;;13.90;100.00;100995.38;5072391;28;20055;-50
2021/07/18 01:14:44;;;;;;;1.17;0.25;;;;;;;13.78;100.00;100988.69;5071547;28;20051;-50
2021/07/18 01:17:48;;;;;;;2.75;0.50;;;;;;;13.71;100.00;100989.00;5071532;28;20060;-50
2021/07/18 01:20:53;;;;;;;1.05;0.47;;;;;;;13.68;100.00;100989.97;5072292;28;20053;-49
2021/07/18 01:23:57;;;;;;;0.68;0.32;;;;;;;13.64;100.00;100995.72;5072345;28;20056;-51
2021/07/18 01:27:04;;;;;;;1.73;0.50;;;;;;;13.66;100.00;100987.63;5072051;28;20048;-51
2021/07/18 01:30:09;;;;;;;3.38;0.85;;;;;;;13.65;100.00;100994.47;5072189;28;20064;-50
2021/07/18 01:33:12;;;;;;;3.35;0.50;;;;;;;13.71;100.00;100988.25;5071772;28;20063;-50
2021/07/18 01:36:16;;;;;;;2.50;0.73;;;;;;;13.75;100.00;100983.25;5071971;28;20055;-51
2021/07/18 01:39:20;;;;;;;1.58;0.70;;;;;;;13.72;100.00;100978.59;5071235;28;20870;-50
2021/07/18 01:42:24;;;;;;;2.28;0.85;;;;;;;13.69;100.00;100978.28;5071763;28;20534;-50
2021/07/18 01:45:27;;;;;;;4.00;0.73;;;;;;;13.60;100.00;100983.13;5071490;28;20064;-50
2021/07/18 01:48:31;;;;;;;1.08;0.52;;;;;;;13.54;100.00;100977.38;5072033;28;20409;-50
2021/07/18 01:51:35;;;;;;;0.95;0.40;;;;;;;13.43;100.00;100974.28;5071472;28;20052;-50
2021/07/18 01:54:38;;;;;;;2.20;0.38;;;;;;;13.32;100.00;100967.63;5071877;28;20068;-50
2021/07/18 01:57:42;;;;;;;0.85;0.40;;;;;;;13.27;100.00;100966.22;5071559;28;20063;-50
2021/07/18 02:00:46;;;;;;;1.58;0.85;;;;;;;13.22;100.00;100969.66;5071588;28;20055;-50
2021/07/18 02:03:49;;;;;;;1.00;0.35;;;;;;;13.17;100.00;100966.69;5070538;28;20056;-50
2021/07/18 02:06:53;;;;;;;2.47;0.70;;;;;;;13.11;100.00;100963.75;5071386;28;20059;-50
2021/07/18 02:09:56;;;;;;;2.72;0.57;;;;;;;13.05;100.00;100968.41;5070951;28;20059;-50
2021/07/18 02:13:00;;;;;;;0.55;0.20;;;;;;;13.01;100.00;100964.19;5071328;28;20060;-50
2021/07/18 02:16:04;;;;;;;2.28;0.85;;;;;;;12.95;100.00;100961.97;5070692;28;20079;-51
2021/07/18 02:19:09;;;;;;;1.10;0.50;;;;;;;12.91;100.00;100960.59;5071503;28;20063;-50
2021/07/18 02:22:14;;;;;;;0.30;0.10;;;;;;;12.88;100.00;100959.50;5071353;28;20059;-50
2021/07/18 02:25:19;;;;;;;3.53;0.60;;;;;;;12.83;100.00;100960.13;5070934;28;20067;-51
2021/07/18 02:28:23;;;;;;;5.35;0.60;;;;;;;12.81;100.00;100950.63;5071110;28;20060;-50
2021/07/18 02:31:27;;;;;;;15.70;0.40;;;;;;;12.81;100.00;100956.22;5071204;28;20059;-50
2021/07/18 02:34:30;;;;;;;1.02;0.80;;;;;;;12.78;100.00;100952.34;5070545;28;20501;-50
2021/07/18 02:37:34;;;;;;;2.60;0.47;;;;;;;12.75;100.00;100958.09;5070609;28;20055;-50
2021/07/18 02:40:37;;;;;;;1.38;0.80;;;;;;;12.72;100.00;100953.41;5071068;28;20114;-49
2021/07/18 02:43:41;;;;;;;0.98;0.57;;;;;;;12.65;100.00;100948.13;5070790;28;20072;-50
2021/07/18 02:46:45;;;;;;;2.83;0.63;;;;;;;12.58;100.00;100951.22;5070489;28;20076;-50
2021/07/18 02:49:48;;;;;;;0.60;0.50;;;;;;;12.49;100.00;100949.19;5070743;28;20052;-50
2021/07/18 02:52:52;;;;;;;0.93;0.65;;;;;;;12.44;100.00;100949.00;5070642;28;20059;-50
2021/07/18 02:55:56;;;;;;;14.77;0.40;;;;;;;12.42;100.00;100954.28;5070952;28;20083;-50
2021/07/18 02:59:00;;;;;;;2.97;0.68;;;;;;;12.42;100.00;100952.28;5070985;28;20405;-50
2021/07/18 03:02:05;;;;;;;1.40;0.43;;;;;;;12.43;100.00;100955.84;5070612;28;20528;-50
2021/07/18 03:05:10;;;;;;;2.78;0.90;;;;;;;12.39;100.00;100955.22;5070776;28;20063;-50
2021/07/18 03:08:14;;;;;;;1.58;0.65;;;;;;;12.31;100.00;100946.34;5070878;28;20067;-50
2021/07/18 03:11:17;;;;;;;0.77;0.60;;;;;;;12.26;100.00;100946.19;5069993;28;20055;-50
2021/07/18 03:14:21;;;;;;;0.60;0.25;;;;;;;12.27;100.00;100939.34;5050560;28;20064;-50
2021/07/18 03:17:24;;;;;;;2.45;0.68;;;;;;;12.26;100.00;100937.81;5054519;28;20075;-50
2021/07/18 03:20:29;;;;;;;3.20;0.65;;;;;;;12.27;100.00;100940.13;5054267;28;20410;-50
2021/07/18 03:23:33;;;;;;;0.98;0.25;;;;;;;12.30;100.00;100944.03;5054662;28;20064;-50
2021/07/18 03:26:37;;;;;;;1.55;0.50;;;;;;;12.23;100.00;100939.50;5054582;28;20056;-50
2021/07/18 03:29:40;;;;;;;2.22;0.63;;;;;;;12.18;100.00;100940.88;5054457;28;20115;-50
2021/07/18 03:32:45;;;;;;;3.83;0.85;;;;;;;12.14;100.00;100942.25;5051824;28;20060;-50
2021/07/18 03:35:48;;;;;;;1.13;0.50;;;;;;;12.04;100.00;100944.22;5053906;28;20072;-49
2021/07/18 03:38:52;;;;;;;2.83;0.38;;;;;;;11.94;100.00;100933.47;5053936;28;20060;-49
2021/07/18 03:41:56;;;;;;;0.45;0.17;;;;;;;11.88;100.00;100930.53;5054280;28;20060;-49
2021/07/18 03:44:59;;;;;;;2.33;0.75;;;;;;;11.85;100.00;100942.59;5054311;28;20072;-50
2021/07/18 03:48:03;;;;;;;1.45;0.38;;;;;;;11.82;100.00;100935.16;5053265;28;20052;-50
2021/07/18 03:51:06;;;;;;;0.55;0.52;;;;;;;11.77;100.00;100940.53;5053477;28;20060;-50
2021/07/18 03:54:09;;;;;;;5.50;0.63;;;;;;;11.73;100.00;100937.88;5054102;28;20515;-50
2021/07/18 03:57:13;;;;;;;1.00;0.15;;;;;;;11.69;100.00;100940.03;5053855;28;20060;-50
2021/07/18 04:00:17;;;;;;;2.17;0.68;;;;;;;11.68;100.00;100949.63;5054028;28;20515;-50
2021/07/18 04:03:20;;;;;;;1.52;0.70;;;;;;;11.67;100.00;100944.53;5053168;28;20572;-50
2021/07/18 04:06:24;;;;;;;0.50;0.28;;;;;;;11.68;100.00;100948.84;5053982;28;20048;-50
2021/07/18 04:09:28;;;;;;;0.15;0.15;;;;;;;11.72;100.00;100955.84;5053771;28;20060;-50
2021/07/18 04:12:31;;;;;;;1.38;0.50;;;;;;;11.70;100.00;100949.16;5061356;28;20063;-50
2021/07/18 04:15:35;;;;;;;1.50;0.98;;;;;;;11.72;100.00;100957.84;5073770;28;20496;-50
2021/07/18 04:18:39;;;;;;;1.33;0.25;;;;;;;11.73;100.00;100957.44;5073844;28;20051;-50
2021/07/18 04:21:42;;;;;;;0.98;0.65;;;;;;;11.73;100.00;100951.84;5073368;28;20059;-49
2021/07/18 04:24:46;;;;;;;0.40;0.17;;;;;;;11.72;100.00;100955.84;5072941;28;20063;-50
2021/07/18 04:27:49;;;;;;;1.17;0.43;;;;;;;11.71;100.00;100954.31;5071014;28;20063;-50
2021/07/18 04:30:52;;;;;;;3.00;0.60;;;;;;;11.76;100.00;100955.72;5072885;28;20520;-50
2021/07/18 04:33:56;;;;;;;1.98;0.50;;;;;;;11.69;100.00;100951.19;5073132;28;20063;-50
2021/07/18 04:37:00;;;;;;;0.93;0.50;;;;;;;11.67;100.00;100956.47;5072917;28;20059;-50
2021/07/18 04:40:05;;;;;;;0.70;0.57;;;;;;;11.63;100.00;100955.75;5073023;28;20059;-50
2021/07/18 04:43:09;;;;;;;2.90;0.30;;;;;;;11.61;100.00;100951.91;5073125;28;20052;-50
2021/07/18 04:46:12;;;;;;;5.32;0.50;;;;;;;11.60;100.00;100951.13;5073092;28;20063;-50
2021/07/18 04:49:15;;;;;;;2.13;0.80;;;;;;;11.65;100.00;100955.31;5073268;28;20055;-50
2021/07/18 04:52:19;;;;;;;0.57;0.57;;;;;;;11.66;100.00;100963.22;5072163;28;20955;-50
2021/07/18 04:55:25;;;;;;;0.35;0.35;;;;;;;11.70;100.00;100958.31;5072748;28;20063;-50
2021/07/18 04:58:28;;;;;;;1.80;0.40;;;;;;;11.75;100.00;100965.34;5072571;28;20059;-50
2021/07/18 05:01:32;;;;;;;1.40;0.73;;;;;;;11.80;100.00;100968.28;5072347;28;20098;-50
2021/07/18 05:04:36;;;;;;;2.05;0.45;;;;;;;11.86;100.00;100960.91;5072613;28;20056;-50
2021/07/18 05:07:59;;;;;;;2.35;0.60;;;;;;;11.90;100.00;100961.53;5072740;28;20063;-50
2021/07/18 05:11:04;;;;;;;4.63;0.95;;;;;;;11.92;100.00;100959.06;5072731;28;20055;-50
2021/07/18 05:14:07;;;;;;;0.45;0.20;;;;;;;11.95;100.00;100960.16;5052397;28;20437;-50
2021/07/18 05:17:10;;;;;;;1.45;0.28;;;;;;;11.97;100.00;100961.28;5036610;28;20056;-50
2021/07/18 05:20:16;;;;;;;2.20;0.43;;;;;;;12.04;100.00;100960.97;5032584;28;20053;-50
2021/07/18 05:23:20;;;;;;;3.33;1.15;;;;;;;12.11;100.00;100965.50;5031933;28;20049;-51
2021/07/18 05:26:23;;;;;;;1.80;0.50;;;;;;;12.17;100.00;100961.66;5032367;28;20116;-50
2021/07/18 05:29:27;;;;;;;2.00;0.47;;;;;;;12.25;100.00;100962.16;5032060;28;20064;-50
2021/07/18 05:32:31;;;;;;;2.78;0.98;;;;;;;12.33;100.00;100960.63;5032158;28;20060;-51
2021/07/18 05:35:34;;;;;;;1.13;0.30;;;;;;;12.41;100.00;100961.13;5039472;28;20065;-50
2021/07/18 05:38:38;;;;;;;4.18;0.65;;;;;;;12.44;100.00;100965.78;5051039;28;20056;-51
2021/07/18 05:41:41;;;;;;;1.05;0.43;;;;;;;12.48;100.00;100960.81;5051753;28;20056;-50
2021/07/18 05:44:45;;;;;;;1.55;0.35;;;;;;;12.58;100.00;100971.56;5052085;28;20060;-51
2021/07/18 05:47:49;;;;;;;3.20;0.73;;;;;;;12.69;100.00;100973.94;5051550;28;20056;-50
2021/07/18 05:50:52;;;;;;;0.32;0.22;;;;;;;12.78;100.00;100963.53;5051000;28;20056;-54
2021/07/18 05:53:56;;;;;;;0.65;0.20;;;;;;;12.85;100.00;100965.25;5051798;28;20060;-54
2021/07/18 05:57:00;;;;;;;2.28;0.60;;;;;;;12.91;100.00;100966.16;5051759;28;20049;-54
2021/07/18 06:00:10;;;;;;;3.08;0.73;;;;;;;13.04;100.00;100975.19;5051584;28;20417;-53
2021/07/18 06:03:13;;;;;;;0.40;0.40;;;;;;;13.15;100.00;100974.75;5067333;28;20056;-54
2021/07/18 06:06:17;;;;;;;1.20;0.45;;;;;;;13.26;100.00;100975.06;5070112;28;20059;-54
2021/07/18 06:09:20;;;;;;;1.02;0.30;;;;;;;13.39;100.00;100979.28;5069821;28;20072;-51
2021/07/18 06:12:25;;;;;;;1.17;0.35;;;;;;;13.53;100.00;100984.25;5068850;28;20067;-51
2021/07/18 06:15:30;;;;;;;3.03;0.50;;;;;;;13.69;100.00;100975.50;5071089;28;20131;-51
2021/07/18 06:18:34;;;;;;;1.25;0.50;;;;;;;13.82;100.00;100972.50;5071577;28;20051;-51
2021/07/18 06:21:37;;;;;;;2.17;0.75;;;;;;;13.95;100.00;100972.31;5071157;28;20416;-51
2021/07/18 06:24:41;;;;;;;3.05;0.47;;;;;;;14.08;100.00;100978.47;5071519;28;20063;-51
2021/07/18 06:27:46;;;;;;;2.30;0.73;;;;;;;14.22;100.00;100980.63;5069940;28;20519;-51
2021/07/18 06:30:54;;;;;;;1.48;0.52;;;;;;;14.34;100.00;100982.44;5071023;28;20508;-51
2021/07/18 06:33:58;;;;;;;1.35;0.50;;;;;;;14.47;100.00;100983.00;5070556;28;20079;-50
2021/07/18 06:37:01;;;;;;;6.93;0.65;;;;;;;14.61;100.00;100987.94;5070736;28;20127;-51
2021/07/18 06:40:05;;;;;;;2.65;0.50;;;;;;;14.71;100.00;100986.63;5070003;28;20051;-51
2021/07/18 06:43:09;;;;;;;4.13;0.90;;;;;;;14.82;100.00;100986.09;5071053;28;20044;-51
2021/07/18 06:46:16;;;;;;;0.90;0.55;;;;;;;14.97;100.00;100984.88;5070051;28;20060;-51
2021/07/18 06:49:20;;;;;;;1.45;0.35;;;;;;;15.11;100.00;100986.19;5061879;28;20399;-51
2021/07/18 06:52:25;;;;;;;1.05;0.20;;;;;;;15.26;100.00;100987.00;5071264;28;20059;-51
2021/07/18 06:55:29;;;;;;;1.15;0.47;;;;;;;15.40;100.00;100982.69;5070983;28;20065;-50
2021/07/18 06:58:33;;;;;;;2.80;0.70;;;;;;;15.50;100.00;100984.97;5071242;28;20504;-50
2021/07/18 07:01:37;;;;;;;0.90;0.70;;;;;;;15.60;100.00;100988.44;5071062;28;20056;-51
2021/07/18 07:04:41;;;;;;;2.38;0.55;;;;;;;15.75;100.00;100994.84;5070900;28;20056;-51
2021/07/18 07:07:48;;;;;;;3.83;0.55;;;;;;;15.93;100.00;100994.66;5068205;28;20072;-51
2021/07/18 07:10:52;;;;;;;1.70;0.52;;;;;;;16.09;100.00;100991.34;5070703;28;20048;-50
2021/07/18 07:13:56;;;;;;;4.60;0.77;;;;;;;16.28;100.00;100989.88;5070333;28;20060;-51
2021/07/18 07:17:03;;;;;;;2.72;0.43;;;;;;;16.44;100.00;100992.16;5068825;28;20063;-51
2021/07/18 07:20:08;;;;;;;1.77;0.40;;;;;;;16.66;100.00;101000.19;5070509;28;20043;-55
2021/07/18 07:23:11;;;;;;;1.95;0.47;;;;;;;16.93;100.00;100984.94;5070337;28;20071;-54
2021/07/18 07:26:15;;;;;;;1.50;0.43;;;;;;;16.99;100.00;100988.59;5069094;28;20047;-54
2021/07/18 07:29:19;;;;;;;0.43;0.20;;;;;;;17.07;100.00;100989.72;5068485;28;20400;-54
2021/07/18 07:32:22;;;;;;;1.83;0.68;;;;;;;17.24;100.00;100999.13;5070909;28;20072;-54
2021/07/18 07:35:26;;;;;;;0.52;0.30;;;;;;;17.34;100.00;100992.09;5070874;28;20063;-54
2021/07/18 07:38:30;;;;;;;1.77;0.73;;;;;;;17.42;100.00;100990.41;5070350;28;20079;-54
2021/07/18 07:41:33;;;;;;;2.05;0.50;;;;;;;17.53;100.00;100998.22;5071023;28;20404;-54
2021/07/18 07:44:37;;;;;;;1.65;0.45;;;;;;;17.66;100.00;100990.94;5071113;28;20079;-55
2021/07/18 07:47:41;;;;;;;2.92;0.70;;;;;;;17.79;100.00;100996.97;5070884;28;20060;-54
2021/07/18 07:50:45;;;;;;;2.58;0.28;;;;;;;17.95;100.00;100987.88;5070649;28;20059;-54
2021/07/18 07:53:50;;;;;;;1.13;0.40;;;;;;;18.07;100.00;100986.72;5070624;28;20060;-54
2021/07/18 07:56:54;;;;;;;1.92;0.40;;;;;;;18.18;100.00;100988.84;5070184;28;20072;-54
2021/07/18 07:59:57;;;;;;;2.88;0.40;;;;;;;18.31;100.00;100988.41;5070512;28;20055;-54
2021/07/18 08:03:01;;;;;;;1.73;0.50;;;;;;;18.47;100.00;100987.81;5072329;28;20064;-54
2021/07/18 08:06:05;;;;;;;4.45;0.45;;;;;;;18.61;100.00;100990.47;5074093;28;20056;-51
2021/07/18 08:09:09;;;;;;;1.75;0.30;;;;;;;18.75;100.00;100986.69;5068490;28;20082;-50
2021/07/18 08:12:13;;;;;;;1.60;0.90;;;;;;;19.02;100.00;100978.84;5058764;28;20408;-51
2021/07/18 08:15:19;;;;;;;0.98;0.38;;;;;;;19.20;100.00;100984.84;5073792;28;20071;-51
2021/07/18 08:18:23;;;;;;;1.27;0.20;;;;;;;19.35;100.00;100974.16;5073214;28;20052;-51
2021/07/18 08:21:26;;;;;;;2.15;0.38;;;;;;;19.47;100.00;100964.41;5073701;28;20067;-51
2021/07/18 08:24:30;;;;;;;1.58;0.82;;;;;;;19.72;100.00;100961.88;5072938;28;20052;-51
2021/07/18 08:27:34;;;;;;;1.92;0.80;;;;;;;20.02;100.00;100958.03;5072996;28;20067;-51
2021/07/18 08:30:39;;;;;;;0.80;0.40;;;;;;;20.34;100.00;100953.66;5073654;28;20060;-51
2021/07/18 08:33:43;;;;;;;1.17;0.25;;;;;;;20.59;100.00;100943.34;5073263;28;20516;-51
2021/07/18 08:36:46;;;;;;;1.08;0.20;;;;;;;20.87;100.00;100946.84;5073436;28;20047;-51
2021/07/18 08:39:51;;;;;;;1.10;0.08;;;;;;;21.20;100.00;100940.28;5084385;28;20385;-51
2021/07/18 08:42:55;;;;;;;1.55;0.30;;;;;;;21.40;100.00;100930.63;5073179;28;20056;-51
2021/07/18 08:45:59;;;;;;;1.38;0.20;;;;;;;21.85;100.00;100924.13;5073436;28;20051;-52
2021/07/18 08:49:02;;;;;;;1.75;0.28;;;;;;;22.02;100.00;100928.91;5073028;28;20078;-52
2021/07/18 08:52:06;;;;;;;0.50;0.20;;;;;;;22.10;100.00;100924.97;5073097;28;20401;-51
2021/07/18 08:55:10;;;;;;;0.75;0.30;;;;;;;22.25;100.00;100922.50;5073043;28;20079;-51
2021/07/18 08:58:15;;;;;;;5.85;0.77;;;;;;;22.54;100.00;100913.13;5073045;28;20059;-52
2021/07/18 09:01:19;;;;;;;1.98;0.32;;;;;;;22.72;100.00;100905.97;5071969;28;20052;-51
2021/07/18 09:04:22;;;;;;;1.95;0.32;;;;;;;22.85;100.00;100906.06;5072693;28;20044;-52
2021/07/18 09:07:26;;;;;;;1.17;0.15;;;;;;;22.97;100.00;100906.72;5072768;28;20051;-52
2021/07/18 09:10:30;;;;;;;0.60;0.10;;;;;;;23.09;100.00;100910.94;5072783;28;20055;-52
2021/07/18 09:13:34;;;;;;;6.82;0.50;;;;;;;23.26;100.00;100909.41;5072203;28;20127;-52
2021/07/18 09:16:40;;;;;;;2.33;0.40;;;;;;;23.50;100.00;100900.03;5071847;28;20060;-49
2021/07/18 09:19:47;;;;;;;4.90;0.43;;;;;;;23.68;100.00;100898.44;5072853;28;20052;-49
2021/07/18 09:23:09;;;;;;;0.57;0.30;;;;;;;23.85;100.00;100908.25;5072443;28;20059;-50
2021/07/18 09:26:20;;;;;;;0.98;0.40;;;;;;;24.03;100.00;100896.03;5072573;28;20059;-50
2021/07/18 09:29:25;;;;;;;2.10;0.45;;;;;;;24.17;100.00;100896.09;5071865;28;20051;-50
2021/07/18 09:32:30;;;;;;;1.73;0.28;;;;;;;24.32;100.00;100893.47;5072563;28;20051;-55
2021/07/18 09:35:34;;;;;;;1.92;0.38;;;;;;;24.41;100.00;100888.09;5072543;28;20056;-55
2021/07/18 09:38:38;;;;;;;5.13;0.30;;;;;;;24.50;100.00;100892.59;5072331;28;20052;-55
2021/07/18 09:41:44;;;;;;;1.65;0.17;;;;;;;24.60;100.00;100891.59;5072050;28;20392;-55
2021/07/18 09:44:47;;;;;;;10.82;0.30;;;;;;;24.70;100.00;100889.09;5071796;28;20515;-55
2021/07/18 09:47:55;;;;;;;3.92;0.38;;;;;;;24.78;100.00;100893.59;5071515;28;20048;-56
2021/07/18 09:51:06;;;;;;;2.72;0.28;;;;;;;24.84;100.00;100887.78;5071663;28;20055;-56
2021/07/18 09:54:12;;;;;;;1.05;0.20;;;;;;;24.95;100.00;100881.84;5071457;28;20515;-55
2021/07/18 09:57:40;;;;;;;0.85;0.30;;;;;;;25.09;100.00;100891.91;5071997;28;20055;-56
2021/07/18 10:00:43;;;;;;;3.38;0.40;;;;;;;25.18;100.00;100885.75;5071140;28;20060;-54
2021/07/18 10:03:48;;;;;;;8.15;0.10;;;;;;;25.20;100.00;100883.09;5071984;28;20504;-53
2021/07/18 10:07:05;;;;;;;1.65;0.10;;;;;;;25.24;100.00;100886.38;5071653;28;20500;-53
2021/07/18 10:10:09;;;;;;;1.00;0.28;;;;;;;25.31;100.00;100891.41;5071870;28;20052;-53
2021/07/18 10:13:12;;;;;;;4.75;0.40;;;;;;;25.41;100.00;100892.44;5071613;28;20409;-53
2021/07/18 10:16:17;;;;;;;2.40;0.30;;;;;;;25.46;100.00;100885.88;5071634;28;20061;-52
2021/07/18 10:19:20;;;;;;;0.63;0.03;;;;;;;25.53;100.00;100885.19;5070096;28;20047;-52
2021/07/18 10:22:25;;;;;;;1.58;0.20;;;;;;;25.53;100.00;100885.19;5071041;28;20055;-53
2021/07/18 10:25:29;;;;;;;1.35;0.22;;;;;;;25.63;100.00;100876.13;5071362;28;20055;-53
2021/07/18 10:28:33;;;;;;;2.20;0.40;;;;;;;25.67;100.00;100883.03;5071558;28;20051;-53
2021/07/18 10:31:38;;;;;;;0.82;0.25;;;;;;;25.75;100.00;100875.31;5071791;28;20052;-55
2021/07/18 10:34:44;;;;;;;1.13;0.30;;;;;;;25.85;100.00;100873.50;5071569;28;20056;-55
2021/07/18 10:37:47;;;;;;;1.75;0.40;;;;;;;25.96;100.00;100870.38;5071085;28;20060;-55
2021/07/18 10:40:53;;;;;;;1.38;0.30;;;;;;;26.04;100.00;100859.00;5071434;28;20056;-56
2021/07/18 10:43:56;;;;;;;6.70;0.60;;;;;;;26.10;100.00;100862.47;5071448;28;20056;-55
2021/07/18 10:46:59;;;;;;;0.75;0.20;;;;;;;26.04;100.00;100854.06;5071420;28;20055;-53
2021/07/18 10:50:05;;;;;;;2.65;0.50;;;;;;;26.09;100.00;100858.13;5071326;28;20055;-53
2021/07/18 10:53:18;;;;;;;1.75;0.10;;;;;;;26.17;100.00;100853.97;5069936;28;20413;-53
2021/07/18 10:56:40;;;;;;;6.57;0.15;;;;;;;26.18;100.00;100857.63;5069977;28;20063;-53
2021/07/18 10:59:43;;;;;;;2.70;0.20;;;;;;;26.16;100.00;100848.84;5070993;28;20055;-53
2021/07/18 11:03:00;;;;;;;0.68;0.10;;;;;;;26.24;100.00;100850.41;5070768;28;20063;-53
2021/07/18 11:06:22;;;;;;;0.43;0.10;;;;;;;26.38;100.00;100839.63;5070767;28;20401;-54
2021/07/18 11:09:26;;;;;;;4.32;0.38;;;;;;;26.46;100.00;100842.53;5070259;28;20060;-54
2021/07/18 11:12:34;;;;;;;2.97;0.20;;;;;;;26.50;100.00;100838.00;5070973;28;20075;-53
2021/07/18 11:15:39;;;;;;;1.85;0.00;;;;;;;26.59;100.00;100837.47;5071033;28;20060;-53
2021/07/18 11:18:42;;;;;;;3.80;1.15;;;;;;;26.62;100.00;100839.19;5070857;28;20063;-53
2021/07/18 11:21:47;;;;;;;2.78;0.10;;;;;;;26.63;100.00;100837.88;5070839;28;20080;-54
2021/07/18 11:24:56;;;;;;;3.95;0.10;;;;;;;26.74;100.00;100829.00;5070615;28;20051;-52
2021/07/18 11:28:00;;;;;;;4.10;0.43;;;;;;;26.87;100.00;100826.00;5070734;28;20059;-54
2021/07/18 11:31:10;;;;;;;1.42;0.20;;;;;;;26.90;100.00;100822.00;5070775;28;20075;-54
2021/07/18 11:34:15;;;;;;;1.27;0.15;;;;;;;27.00;100.00;100822.22;5070703;28;20052;-54
2021/07/18 11:37:20;;;;;;;0.75;0.10;;;;;;;27.06;100.00;100825.66;5071276;28;20051;-53
2021/07/18 11:40:26;;;;;;;4.00;0.10;;;;;;;27.08;100.00;100822.22;5074405;28;20064;-53
2021/07/18 11:43:30;;;;;;;0.63;0.10;;;;;;;27.01;100.00;100813.06;5074201;28;20075;-54
2021/07/18 11:46:38;;;;;;;0.73;0.32;;;;;;;27.04;100.00;100817.66;5073550;28;20056;-54
2021/07/18 11:49:44;;;;;;;0.57;0.10;;;;;;;27.13;100.00;100807.00;5074073;28;20052;-53
2021/07/18 11:52:48;;;;;;;0.93;0.20;;;;;;;27.13;100.00;100812.72;5074376;28;20071;-53
2021/07/18 11:55:51;;;;;;;1.17;0.28;;;;;;;27.19;100.00;100810.44;5073878;28;20055;-53
2021/07/18 11:59:02;;;;;;;3.05;0.57;;;;;;;27.28;100.00;100818.47;5074307;28;20056;-52
2021/07/18 12:02:06;;;;;;;4.32;0.43;;;;;;;27.35;100.00;100806.28;5068328;28;20052;-54
2021/07/18 12:05:10;;;;;;;1.58;0.10;;;;;;;27.43;100.00;100812.78;5069542;28;20059;-54
2021/07/18 12:08:15;;;;;;;3.35;0.65;;;;;;;27.49;100.00;100804.78;5073849;28;20496;-54
2021/07/18 12:11:32;;;;;;;1.42;0.15;;;;;;;27.49;100.00;100799.84;5073236;28;20492;-54
2021/07/18 12:14:37;;;;;;;1.77;0.30;;;;;;;27.48;100.00;100798.28;5042247;28;20072;-54
2021/07/18 12:17:40;;;;;;;4.93;0.70;;;;;;;27.57;100.00;100794.13;5033865;28;20064;-53
2021/07/18 12:20:43;;;;;;;3.63;0.90;;;;;;;27.60;100.00;100790.09;5033790;28;20052;-54
2021/07/18 12:24:16;;;;;;;1.13;0.40;;;;;;;27.61;100.00;100794.50;5034102;28;20386;-54
2021/07/18 12:27:26;;;;;;;0.65;0.10;;;;;;;27.61;100.00;100788.78;5033083;28;20532;-54
2021/07/18 12:30:29;;;;;;;;;;;;;;;27.61;100.00;100788.78;5034342;28;20395;-54
2021/07/18 12:33:34;;;;;;;0.57;0.10;;;;;;;27.70;100.00;100785.31;5033773;28;19917;-54
2021/07/18 12:37:03;;;;;;;1.45;0.20;;;;;;;27.76;100.00;100789.50;5033699;28;20064;-54
2021/07/18 12:40:07;;;;;;;0.43;0.10;;;;;;;27.85;100.00;100791.06;5033433;28;20064;-52
2021/07/18 12:43:11;;;;;;;1.15;0.15;;;;;;;27.91;100.00;100785.88;5033800;28;20072;-53
2021/07/18 12:46:20;;;;;;;1.55;0.10;;;;;;;27.94;100.00;100783.97;5052682;28;20056;-53
2021/07/18 12:49:24;;;;;;;2.40;0.28;;;;;;;27.85;100.00;100785.34;5052250;28;20048;-54
2021/07/18 12:52:28;;;;;;;1.23;0.20;;;;;;;27.76;100.00;100780.19;5053252;28;20064;-53
2021/07/18 12:55:31;;;;;;;3.85;0.30;;;;;;;27.78;100.00;100775.41;5053213;28;20056;-54
2021/07/18 12:58:41;;;;;;;2.80;0.20;;;;;;;27.83;100.00;100775.78;5053338;28;20076;-53
2021/07/18 13:01:45;;;;;;;0.50;0.20;;;;;;;27.92;100.00;100775.94;5052870;28;20404;-53
2021/07/18 13:05:08;;;;;;;0.60;0.10;;;;;;;28.08;100.00;100766.03;5052326;28;20052;-53
2021/07/18 13:08:32;;;;;;;2.20;0.73;;;;;;;28.20;100.00;100770.00;5053037;28;20063;-53
2021/07/18 13:11:43;;;;;;;5.57;0.20;;;;;;;28.25;100.00;100771.91;5052371;28;20063;-53
2021/07/18 13:14:47;;;;;;;0.77;0.25;;;;;;;28.20;100.00;100770.00;5032882;28;20068;-53
2021/07/18 13:17:55;;;;;;;2.28;0.55;;;;;;;28.14;100.00;100762.94;5032727;28;20088;-53
2021/07/18 13:21:09;;;;;;;0.52;0.10;;;;;;;28.06;100.00;100753.63;5032880;28;20061;-53
2021/07/18 13:24:29;;;;;;;0.40;0.10;;;;;;;28.01;100.00;100755.34;5032369;28;20060;-53
2021/07/18 13:27:38;;;;;;;0.20;0.10;;;;;;;28.01;100.00;100763.94;5050701;28;20401;-53
2021/07/18 13:30:44;;;;;;;0.83;0.40;;;;;;;27.97;100.00;100763.56;5052674;28;20064;-53
2021/07/18 13:33:48;;;;;;;5.55;0.30;;;;;;;27.95;100.00;100754.75;5052394;28;20055;-53
2021/07/18 13:36:58;;;;;;;4.32;0.10;;;;;;;27.98;100.00;100753.63;5051440;28;20060;-53
2021/07/18 13:40:04;;;;;;;1.40;0.30;;;;;;;28.01;100.00;100746.75;5052051;28;20409;-53
2021/07/18 13:43:12;;;;;;;5.47;0.30;;;;;;;28.10;100.00;100743.28;5051863;28;20052;-53
2021/07/18 13:46:15;;;;;;;1.98;0.10;;;;;;;28.05;100.00;100741.38;5051821;28;20390;-53
2021/07/18 13:49:18;;;;;;;0.70;0.10;;;;;;;28.03;100.00;100743.28;5051297;28;20528;-53
2021/07/18 13:52:22;;;;;;;4.80;0.30;;;;;;;28.02;100.00;100742.56;5051916;28;20405;-53
2021/07/18 13:55:25;;;;;;;1.73;0.20;;;;;;;28.10;100.00;100736.78;5051629;28;20052;-53
2021/07/18 13:58:29;;;;;;;4.95;0.22;;;;;;;28.08;100.00;100739.47;5051792;28;20067;-53
2021/07/18 14:01:32;;;;;;;3.60;0.13;;;;;;;28.10;100.00;100737.56;5051163;28;20056;-54
2021/07/18 14:04:36;;;;;;;0.98;0.20;;;;;;;28.11;100.00;100730.47;5051344;28;20067;-53
2021/07/18 14:07:40;;;;;;;3.08;0.40;;;;;;;28.20;100.00;100741.34;5051900;28;20056;-53
2021/07/18 14:10:45;;;;;;;1.45;0.20;;;;;;;28.26;100.00;100735.41;5051372;28;20064;-53